Terminal Aerodrome Forecast
Issued by NWS Buffalo, NY

Home | Current Version | Previous Version | Text Only | Print | Product List | Glossary On
Versions: 1 2 3 4 5 6 7 8 9 10 11 12 13 14 15 16 17 18 19 20 21 22 23 24 25
000
FTUS41 KBUF 250539
TAFBUF
TAF
KBUF 250539Z 2506/2606 08008KT P6SM BKN250
     FM250800 09007KT P6SM BKN090
     FM251000 09007KT P6SM VCSH OVC060
     FM251100 10008KT P6SM -SHRA OVC035
     FM251600 12009KT P6SM VCSH OVC050
     FM251800 11008KT P6SM BKN070
     FM260300 10007KT P6SM BKN040=

USA.gov is the U.S. government's official web portal to all federal, state and local government web resources and services.